createdAt,value
2022-09-03T00:00:01.363Z,100059.91
2022-09-03T00:02:36.616Z,100046.69
2022-09-03T00:05:12.974Z,100032.28
2022-09-03T00:07:49.026Z,100033.09
2022-09-03T00:10:23.314Z,100037.09
2022-09-03T00:12:55.593Z,100028.41
2022-09-03T00:15:25.313Z,100034.19
2022-09-03T00:17:56.942Z,100020.19
2022-09-03T00:20:32.151Z,100015.13
2022-09-03T00:23:05.163Z,100003.44
2022-09-03T00:25:40.321Z,100003.41
2022-09-03T00:28:16.966Z,100005.78
2022-09-03T00:30:47.757Z,100019.72
2022-09-03T00:33:22.526Z,100017.03
2022-09-03T00:35:56.388Z,100027.09
2022-09-03T00:38:24.636Z,100039.53
2022-09-03T00:41:10.539Z,100049.25
2022-09-03T00:44:04.153Z,100055.47
2022-09-03T00:46:42.598Z,100079.19
2022-09-03T00:49:30.213Z,100088.84
2022-09-03T00:52:05.407Z,100095.22
2022-09-03T00:54:42.781Z,100101.06
2022-09-03T00:57:25.965Z,100088.66
2022-09-03T01:00:04.104Z,100099.94
2022-09-03T01:02:47.346Z,100084.44
2022-09-03T01:05:30.800Z,100090.25
2022-09-03T01:08:15.954Z,100078.56
2022-09-03T01:10:55.193Z,100075.44
2022-09-03T01:13:30.048Z,100071.59
2022-09-03T01:16:10.880Z,100064.50
2022-09-03T01:18:47.185Z,100065.69
2022-09-03T01:21:38.511Z,100060.28
2022-09-03T01:24:33.474Z,100070.00
2022-09-03T01:27:19.492Z,100070.38
2022-09-03T01:29:58.496Z,100066.06
2022-09-03T01:32:31.870Z,100065.53
2022-09-03T01:35:07.335Z,100067.50
2022-09-03T01:37:47.216Z,100065.00
2022-09-03T01:40:32.289Z,100067.97
2022-09-03T01:43:16.249Z,100066.28
2022-09-03T01:45:54.358Z,100069.31
2022-09-03T01:48:46.302Z,100064.22
2022-09-03T01:51:21.507Z,100066.81
2022-09-03T01:54:20.968Z,100055.44
2022-09-03T01:57:12.800Z,100048.72
2022-09-03T02:00:02.860Z,100041.28
2022-09-03T02:02:32.782Z,100033.13
2022-09-03T02:05:08.919Z,100035.38
2022-09-03T02:07:40.120Z,100031.09
2022-09-03T02:10:12.139Z,100032.25
2022-09-03T02:12:43.275Z,100036.50
2022-09-03T02:15:14.828Z,100048.09
2022-09-03T02:17:46.996Z,100054.00
2022-09-03T02:20:21.329Z,100060.63
2022-09-03T02:22:50.987Z,100067.25
2022-09-03T02:25:19.353Z,100063.75
2022-09-03T02:27:49.672Z,100070.06
2022-09-03T02:30:18.723Z,100072.72
2022-09-03T02:32:48.695Z,100084.78
2022-09-03T02:35:17.014Z,100088.31
2022-09-03T02:37:45.147Z,100090.28
2022-09-03T02:40:13.310Z,100095.72
2022-09-03T02:42:41.496Z,100096.94
2022-09-03T02:45:21.226Z,100092.47
2022-09-03T02:47:55.614Z,100095.44
2022-09-03T02:50:24.298Z,100087.28
2022-09-03T02:52:53.241Z,100104.84
2022-09-03T02:55:22.063Z,100106.22
2022-09-03T02:57:50.360Z,100090.38
2022-09-03T03:00:19.408Z,100086.84
2022-09-03T03:02:47.678Z,100089.41
2022-09-03T03:05:26.346Z,100078.84
2022-09-03T03:07:58.638Z,100064.03
2022-09-03T03:10:32.809Z,100063.25
2022-09-03T03:13:01.119Z,100067.16
2022-09-03T03:15:29.269Z,100072.94
2022-09-03T03:17:57.704Z,100073.13
2022-09-03T03:20:27.368Z,100074.69
2022-09-03T03:22:55.563Z,100079.69
2022-09-03T03:25:24.372Z,100075.94
2022-09-03T03:27:52.888Z,100068.84
2022-09-03T03:30:21.599Z,100079.50
2022-09-03T03:32:49.874Z,100084.97
2022-09-03T03:35:18.050Z,100096.94
2022-09-03T03:37:47.785Z,100092.75
2022-09-03T03:40:17.165Z,100096.31
2022-09-03T03:42:45.329Z,100096.50
2022-09-03T03:45:13.535Z,100102.44
2022-09-03T03:47:41.838Z,100103.28
2022-09-03T03:50:10.598Z,100106.44
2022-09-03T03:52:38.714Z,100099.91
2022-09-03T03:55:09.214Z,100096.66
2022-09-03T03:57:37.902Z,100104.56
2022-09-03T04:00:07.108Z,100097.75
2022-09-03T04:02:39.021Z,100101.53
2022-09-03T04:05:08.180Z,100108.53
2022-09-03T04:07:36.639Z,100110.19
2022-09-03T04:10:05.232Z,100124.59
2022-09-03T04:12:34.816Z,100133.78
2022-09-03T04:15:03.492Z,100136.13
2022-09-03T04:17:31.617Z,100144.63
2022-09-03T04:19:59.754Z,100148.66
2022-09-03T04:22:29.658Z,100158.09
2022-09-03T04:24:57.936Z,100159.75
2022-09-03T04:27:26.135Z,100162.53
2022-09-03T04:29:55.661Z,100154.50
2022-09-03T04:32:41.373Z,100164.91
2022-09-03T04:35:10.456Z,100172.34
2022-09-03T04:37:38.598Z,100167.34
2022-09-03T04:40:07.838Z,100168.16
2022-09-03T04:42:36.117Z,100172.34
2022-09-03T04:45:06.446Z,100164.53
2022-09-03T04:47:36.638Z,100174.00
2022-09-03T04:50:05.463Z,100165.59
2022-09-03T04:52:33.754Z,100164.69
2022-09-03T04:55:02.950Z,100172.31
2022-09-03T04:57:34.616Z,100169.69
2022-09-03T05:00:02.737Z,100161.50
2022-09-03T05:02:32.410Z,100156.59
2022-09-03T05:05:00.682Z,100165.13
2022-09-03T05:07:38.598Z,100165.19
2022-09-03T05:10:08.627Z,100170.47
2022-09-03T05:12:36.943Z,100172.06
2022-09-03T05:15:05.781Z,100179.69
2022-09-03T05:17:37.801Z,100189.81
2022-09-03T05:20:07.651Z,100197.19
2022-09-03T05:22:36.279Z,100209.31
2022-09-03T05:25:04.713Z,100208.19
2022-09-03T05:27:33.517Z,100204.78
2022-09-03T05:30:01.659Z,100206.84
2022-09-03T05:32:32.927Z,100211.69
2022-09-03T05:35:02.607Z,100215.03
2022-09-03T05:37:30.836Z,100214.94
2022-09-03T05:39:59.001Z,100222.13
2022-09-03T05:42:28.409Z,100216.13
2022-09-03T05:44:57.607Z,100217.75
2022-09-03T05:47:25.724Z,100220.88
2022-09-03T05:49:53.969Z,100211.25
2022-09-03T05:52:23.622Z,100205.91
2022-09-03T05:54:51.768Z,100199.19
2022-09-03T05:57:19.983Z,100210.78
2022-09-03T05:59:48.249Z,100210.22
2022-09-03T06:02:16.556Z,100208.69
2022-09-03T06:04:47.893Z,100213.81
2022-09-03T06:07:16.788Z,100215.66
2022-09-03T06:09:46.354Z,100210.44
2022-09-03T06:12:14.464Z,100212.50
2022-09-03T06:14:42.629Z,100219.13
2022-09-03T06:17:12.789Z,100222.63
2022-09-03T06:19:41.013Z,100216.94
2022-09-03T06:22:09.302Z,100214.91
2022-09-03T06:24:37.422Z,100224.84
2022-09-03T06:27:08.515Z,100230.75
2022-09-03T06:29:37.060Z,100226.25
2022-09-03T06:32:05.864Z,100233.28
2022-09-03T06:34:34.036Z,100230.13
2022-09-03T06:37:02.218Z,100240.97
2022-09-03T06:39:30.880Z,100240.63
2022-09-03T06:41:59.115Z,100248.13
2022-09-03T06:44:28.881Z,100245.97
2022-09-03T06:47:00.521Z,100253.19
2022-09-03T06:49:28.920Z,100242.22
2022-09-03T06:51:57.166Z,100248.00
2022-09-03T06:54:25.378Z,100240.03
2022-09-03T06:56:54.596Z,100237.72
2022-09-03T06:59:22.733Z,100245.09
2022-09-03T07:01:53.186Z,100245.41
2022-09-03T07:04:25.072Z,100246.84
2022-09-03T07:06:53.303Z,100254.53
2022-09-03T07:09:21.547Z,100256.50
2022-09-03T07:11:49.832Z,100252.25
2022-09-03T07:14:19.835Z,100267.38
2022-09-03T07:16:49.494Z,100258.81
2022-09-03T07:19:19.561Z,100265.34
2022-09-03T07:21:50.450Z,100271.25
2022-09-03T07:24:22.257Z,100269.03
2022-09-03T07:26:50.803Z,100269.19
2022-09-03T07:29:21.864Z,100271.56
2022-09-03T07:31:52.961Z,100288.41
2022-09-03T07:34:26.814Z,100282.69
2022-09-03T07:36:55.733Z,100283.78
2022-09-03T07:39:24.011Z,100282.13
2022-09-03T07:41:52.223Z,100277.41
2022-09-03T07:44:21.383Z,100280.69
2022-09-03T07:46:51.656Z,100282.47
2022-09-03T07:49:22.593Z,100303.72
2022-09-03T07:51:54.509Z,100299.41
2022-09-03T07:54:24.301Z,100293.06
2022-09-03T07:56:55.245Z,100285.53
2022-09-03T07:59:24.710Z,100293.09
2022-09-03T08:01:53.143Z,100278.50
2022-09-03T08:04:23.189Z,100283.47
2022-09-03T08:06:55.743Z,100288.00
2022-09-03T08:09:24.169Z,100287.53
2022-09-03T08:11:52.438Z,100294.75
2022-09-03T08:14:20.894Z,100293.09
2022-09-03T08:16:49.237Z,100288.50
2022-09-03T08:19:18.496Z,100287.28
2022-09-03T08:21:48.491Z,100281.00
2022-09-03T08:24:18.017Z,100268.59
2022-09-03T08:26:51.378Z,100283.31
2022-09-03T08:29:20.159Z,100280.16
2022-09-03T08:31:48.843Z,100287.25
2022-09-03T08:34:17.964Z,100285.13
2022-09-03T08:36:48.235Z,100286.50
2022-09-03T08:39:16.827Z,100280.69
2022-09-03T08:42:20.324Z,100280.34
2022-09-03T08:44:51.224Z,100282.31
2022-09-03T08:47:24.082Z,100285.44
2022-09-03T08:49:57.813Z,100292.94
2022-09-03T08:52:33.892Z,100285.63
2022-09-03T08:55:15.689Z,100298.31
2022-09-03T08:57:48.557Z,100294.97
2022-09-03T09:00:17.645Z,100297.56
2022-09-03T09:02:59.597Z,100309.84
2022-09-03T09:05:41.685Z,100315.97
2022-09-03T09:08:20.856Z,100314.84
2022-09-03T09:10:51.426Z,100322.72
2022-09-03T09:13:29.562Z,100332.63
2022-09-03T09:16:07.892Z,100320.84
2022-09-03T09:18:51.143Z,100308.25
2022-09-03T09:21:27.752Z,100312.22
2022-09-03T09:24:02.114Z,100320.91
2022-09-03T09:26:30.379Z,100333.84
2022-09-03T09:29:04.671Z,100332.09
2022-09-03T09:31:35.985Z,100328.66
2022-09-03T09:34:07.166Z,100329.59
2022-09-03T09:36:48.501Z,100321.00
2022-09-03T09:39:19.319Z,100333.06
2022-09-03T09:41:59.472Z,100340.66
2022-09-03T09:44:28.195Z,100330.78
2022-09-03T09:47:08.637Z,100339.66
2022-09-03T09:49:39.752Z,100347.25
2022-09-03T09:52:12.177Z,100344.53
2022-09-03T09:54:43.284Z,100343.72
2022-09-03T09:57:18.377Z,100343.81
2022-09-03T09:59:47.129Z,100336.50
2022-09-03T10:02:22.026Z,100341.69
2022-09-03T10:04:51.119Z,100334.28
2022-09-03T10:07:26.323Z,100333.91
2022-09-03T10:10:07.873Z,100331.63
2022-09-03T10:12:42.365Z,100341.84
2022-09-03T10:15:24.722Z,100347.84
2022-09-03T10:18:08.331Z,100354.97
2022-09-03T10:20:44.985Z,100349.09
2022-09-03T10:23:18.125Z,100353.59
2022-09-03T10:26:04.901Z,100357.94
2022-09-03T10:28:36.239Z,100358.34
2022-09-03T10:31:36.813Z,100369.88
2022-09-03T10:34:11.906Z,100379.44
2022-09-03T10:36:51.499Z,100390.72
2022-09-03T10:39:24.615Z,100397.88
2022-09-03T10:42:06.999Z,100394.66
2022-09-03T10:44:58.413Z,100389.75
2022-09-03T10:47:50.403Z,100379.50
2022-09-03T10:50:24.778Z,100379.88
2022-09-03T10:53:08.659Z,100377.59
2022-09-03T10:55:49.729Z,100372.41
2022-09-03T10:58:49.782Z,100376.84
2022-09-03T11:01:28.367Z,100389.91
2022-09-03T11:04:10.047Z,100390.94
2022-09-03T11:06:45.103Z,100401.25
2022-09-03T11:09:19.859Z,100394.03
2022-09-03T11:11:53.919Z,100396.75
2022-09-03T11:14:35.933Z,100406.84
2022-09-03T11:17:10.447Z,100402.06
2022-09-03T11:19:48.411Z,100412.91
2022-09-03T11:22:20.689Z,100425.59
2022-09-03T11:24:56.241Z,100420.53
2022-09-03T11:27:38.201Z,100419.56
2022-09-03T11:30:10.408Z,100408.31
2022-09-03T11:32:52.842Z,100399.91
2022-09-03T11:35:30.943Z,100398.91
2022-09-03T11:38:01.857Z,100409.81
2022-09-03T11:40:38.194Z,100405.38
2022-09-03T11:43:14.768Z,100392.50
2022-09-03T11:45:44.556Z,100388.03
2022-09-03T11:48:30.338Z,100385.00
2022-09-03T11:50:58.449Z,100397.63
2022-09-03T11:53:30.227Z,100395.56
2022-09-03T11:56:03.845Z,100407.28
2022-09-03T11:58:36.235Z,100410.09
2022-09-03T12:01:10.709Z,100422.50
2022-09-03T12:03:47.824Z,100420.47
2022-09-03T12:06:34.314Z,100407.47
2022-09-03T12:09:27.240Z,100404.66
2022-09-03T12:12:07.297Z,100417.25
2022-09-03T12:14:44.615Z,100427.75
2022-09-03T12:17:25.423Z,100419.19
2022-09-03T12:19:55.605Z,100420.41
2022-09-03T12:22:25.727Z,100415.88
2022-09-03T12:24:55.343Z,100430.50
2022-09-03T12:27:26.175Z,100432.94
2022-09-03T12:29:58.195Z,100434.56
2022-09-03T12:32:30.352Z,100419.13
2022-09-03T12:34:58.497Z,100429.25
2022-09-03T12:40:22.471Z,100431.53
2022-09-03T12:42:51.727Z,100431.91
2022-09-03T12:45:23.077Z,100438.47
2022-09-03T12:47:54.675Z,100420.56
2022-09-03T12:50:25.182Z,100413.63
2022-09-03T12:52:56.650Z,100427.69
2022-09-03T12:55:38.545Z,100430.03
2022-09-03T12:58:14.151Z,100423.16
2022-09-03T13:00:47.777Z,100433.81
2022-09-03T13:03:23.199Z,100424.56
2022-09-03T13:05:56.082Z,100430.22
2022-09-03T13:08:28.766Z,100422.47
2022-09-03T13:10:59.139Z,100415.56
2022-09-03T13:13:29.496Z,100432.47
2022-09-03T13:16:17.281Z,100429.69
2022-09-03T13:18:55.321Z,100446.09
2022-09-03T13:21:35.189Z,100454.41
2022-09-03T13:24:41.754Z,100450.69
2022-09-03T13:27:20.453Z,100452.88
2022-09-03T13:30:05.430Z,100465.50
2022-09-03T13:32:44.344Z,100473.72
2022-09-03T13:35:25.046Z,100469.56
2022-09-03T13:37:59.199Z,100467.06
2022-09-03T13:40:34.752Z,100465.47
2022-09-03T13:43:06.966Z,100461.66
2022-09-03T13:45:42.422Z,100463.94
2022-09-03T13:48:33.484Z,100469.88
2022-09-03T13:51:13.396Z,100459.00
2022-09-03T13:53:53.483Z,100470.84
2022-09-03T13:56:29.137Z,100472.38
2022-09-03T13:59:07.446Z,100459.13
2022-09-03T14:01:57.211Z,100462.56
2022-09-03T14:04:36.416Z,100461.28
2022-09-03T14:07:14.761Z,100461.84
2022-09-03T14:09:53.618Z,100458.44
2022-09-03T14:12:31.773Z,100465.81
2022-09-03T14:15:04.515Z,100448.09
2022-09-03T14:17:41.704Z,100449.94
2022-09-03T14:20:14.479Z,100453.72
2022-09-03T14:22:53.303Z,100441.91
2022-09-03T14:25:23.649Z,100452.50
2022-09-03T14:27:52.467Z,100438.63
2022-09-03T14:30:33.051Z,100444.66
2022-09-03T14:33:12.264Z,100436.94
2022-09-03T14:35:50.103Z,100441.03
2022-09-03T14:38:49.285Z,100419.41
2022-09-03T14:41:46.498Z,100451.50
2022-09-03T14:44:43.424Z,100443.19
2022-09-03T14:47:31.482Z,100448.06
2022-09-03T14:50:28.606Z,100456.16
2022-09-03T14:53:32.661Z,100455.75
2022-09-03T14:56:24.020Z,100467.75
2022-09-03T14:59:08.771Z,100462.94
2022-09-03T15:01:39.139Z,100453.94
2022-09-03T15:04:39.600Z,100475.53
2022-09-03T15:07:22.791Z,100459.91
2022-09-03T15:10:02.589Z,100466.13
2022-09-03T15:12:38.458Z,100456.97
2022-09-03T15:15:13.736Z,100461.81
2022-09-03T15:17:55.807Z,100462.97
2022-09-03T15:20:33.188Z,100451.53
2022-09-03T15:23:25.707Z,100476.88
2022-09-03T15:26:27.494Z,100466.75
2022-09-03T15:29:11.461Z,100476.00
2022-09-03T15:31:49.743Z,100478.44
2022-09-03T15:34:38.650Z,100483.84
2022-09-03T15:37:14.743Z,100493.06
2022-09-03T15:39:47.171Z,100495.50
2022-09-03T15:42:24.221Z,100514.25
2022-09-03T15:44:56.417Z,100511.81
2022-09-03T15:47:51.930Z,100527.38
2022-09-03T15:50:33.034Z,100526.94
2022-09-03T15:53:06.165Z,100530.78
2022-09-03T15:55:38.225Z,100526.41
2022-09-03T15:58:32.501Z,100514.19
2022-09-03T16:01:04.709Z,100509.91
2022-09-03T16:03:46.982Z,100509.72
2022-09-03T16:06:38.188Z,100504.75
2022-09-03T16:09:21.531Z,100505.94
2022-09-03T16:11:57.005Z,100505.72
2022-09-03T16:14:32.552Z,100500.47
2022-09-03T16:17:07.469Z,100494.31
2022-09-03T16:19:43.389Z,100504.47
2022-09-03T16:22:18.796Z,100523.06
2022-09-03T16:24:54.127Z,100532.78
2022-09-03T16:27:25.367Z,100539.66
2022-09-03T16:30:00.349Z,100546.28
2022-09-03T16:33:02.912Z,100576.06
2022-09-03T16:35:44.423Z,100561.63
2022-09-03T16:38:27.490Z,100566.09
2022-09-03T16:41:04.427Z,100574.91
2022-09-03T16:43:45.446Z,100578.25
2022-09-03T16:46:26.136Z,100584.34
2022-09-03T16:49:26.960Z,100596.19
2022-09-03T16:51:58.950Z,100591.84
2022-09-03T16:54:44.663Z,100604.72
2022-09-03T16:57:37.231Z,100598.41
2022-09-03T17:00:10.726Z,100613.31
2022-09-03T17:03:08.634Z,100620.28
2022-09-03T17:06:12.020Z,100632.56
2022-09-03T17:08:51.176Z,100645.06
2022-09-03T17:11:43.002Z,100651.59
2022-09-03T17:14:26.549Z,100652.06
2022-09-03T17:17:06.545Z,100660.19
2022-09-03T17:19:45.428Z,100657.03
2022-09-03T17:22:39.533Z,100653.88
2022-09-03T17:25:21.191Z,100663.88
2022-09-03T17:27:53.131Z,100677.97
2022-09-03T17:30:28.566Z,100680.88
2022-09-03T17:33:33.360Z,100680.66
2022-09-03T17:36:11.704Z,100687.66
2022-09-03T17:39:26.779Z,100705.06
2022-09-03T17:41:56.797Z,100694.81
2022-09-03T17:44:39.733Z,100708.34
2022-09-03T17:47:37.476Z,100718.72
2022-09-03T17:50:14.240Z,100722.91
2022-09-03T17:52:48.740Z,100715.91
2022-09-03T17:55:25.758Z,100722.00
2022-09-03T17:57:59.147Z,100725.06
2022-09-03T18:00:35.142Z,100721.31
2022-09-03T18:03:12.687Z,100723.25
2022-09-03T18:05:47.574Z,100719.19
2022-09-03T18:08:22.052Z,100719.06
2022-09-03T18:11:08.149Z,100722.41
2022-09-03T18:13:47.917Z,100713.97
2022-09-03T18:16:23.131Z,100711.72
2022-09-03T18:18:53.658Z,100711.38
2022-09-03T18:21:43.575Z,100721.50
2022-09-03T18:24:42.133Z,100721.53
2022-09-03T18:27:33.591Z,100729.75
2022-09-03T18:30:22.507Z,100722.63
2022-09-03T18:33:07.772Z,100731.56
2022-09-03T18:35:53.794Z,100739.53
2022-09-03T18:38:45.121Z,100751.13
2022-09-03T18:42:06.173Z,100743.06
2022-09-03T18:45:20.784Z,100738.78
2022-09-03T18:48:21.046Z,100740.81
2022-09-03T18:51:17.477Z,100736.53
2022-09-03T18:54:13.800Z,100745.31
2022-09-03T18:57:05.023Z,100746.41
2022-09-03T19:00:07.543Z,100750.28
2022-09-03T19:03:04.096Z,100751.13
2022-09-03T19:05:58.386Z,100748.25
2022-09-03T19:08:48.107Z,100755.22
2022-09-03T19:11:50.157Z,100742.03
2022-09-03T19:14:53.385Z,100758.91
2022-09-03T19:17:52.482Z,100763.38
2022-09-03T19:20:43.966Z,100751.53
2022-09-03T19:23:29.651Z,100753.34
2022-09-03T19:26:25.254Z,100758.75
2022-09-03T19:29:21.008Z,100759.75
2022-09-03T19:32:15.591Z,100758.28
2022-09-03T19:35:23.738Z,100770.47
2022-09-03T19:38:19.523Z,100772.31
2022-09-03T19:41:16.382Z,100772.75
2022-09-03T19:44:13.022Z,100791.41
2022-09-03T19:47:05.882Z,100793.00
2022-09-03T19:50:04.599Z,100785.09
2022-09-03T19:53:00.548Z,100788.25
2022-09-03T19:55:49.153Z,100797.81
2022-09-03T19:58:43.619Z,100806.06
2022-09-03T20:01:30.771Z,100808.69
2022-09-03T20:04:22.365Z,100802.03
2022-09-03T20:07:07.881Z,100814.44
2022-09-03T20:09:59.866Z,100807.09
2022-09-03T20:12:32.621Z,100810.34
2022-09-03T20:15:01.291Z,100817.31
2022-09-03T20:17:39.682Z,100814.22
2022-09-03T20:20:25.160Z,100815.22
2022-09-03T20:22:59.259Z,100823.66
2022-09-03T20:25:48.873Z,100815.50
2022-09-03T20:28:30.408Z,100818.03
2022-09-03T20:31:03.893Z,100819.38
2022-09-03T20:33:47.028Z,100818.44
2022-09-03T20:36:25.399Z,100829.72
2022-09-03T20:39:07.172Z,100828.59
2022-09-03T20:41:46.838Z,100827.28
2022-09-03T20:44:33.428Z,100830.66
2022-09-03T20:47:14.525Z,100843.28
2022-09-03T20:49:52.835Z,100826.41
2022-09-03T20:52:26.115Z,100834.19
2022-09-03T20:55:05.446Z,100833.41
2022-09-03T20:57:47.257Z,100836.69
2022-09-03T21:00:18.771Z,100824.63
2022-09-03T21:03:10.642Z,100843.09
2022-09-03T21:05:47.107Z,100835.06
2022-09-03T21:08:29.775Z,100841.97
2022-09-03T21:11:03.065Z,100838.44
2022-09-03T21:13:43.592Z,100845.13
2022-09-03T21:16:26.498Z,100841.19
2022-09-03T21:19:04.678Z,100843.41
2022-09-03T21:21:47.159Z,100842.63
2022-09-03T21:24:18.662Z,100845.56
2022-09-03T21:26:52.011Z,100839.34
2022-09-03T21:29:27.390Z,100843.03
2022-09-03T21:32:02.420Z,100846.88
2022-09-03T21:34:33.346Z,100853.06
2022-09-03T21:37:05.509Z,100851.94
2022-09-03T21:39:39.595Z,100854.38
2022-09-03T21:42:13.051Z,100845.94
2022-09-03T21:44:59.799Z,100843.03
2022-09-03T21:47:32.285Z,100847.78
2022-09-03T21:50:13.108Z,100851.34
2022-09-03T21:52:50.452Z,100856.75
2022-09-03T21:55:23.025Z,100848.16
2022-09-03T21:58:05.806Z,100854.72
2022-09-03T22:00:35.451Z,100863.28
2022-09-03T22:03:03.743Z,100858.97
2022-09-03T22:05:45.482Z,100866.97
2022-09-03T22:08:24.889Z,100857.53
2022-09-03T22:11:03.887Z,100861.44
2022-09-03T22:13:33.647Z,100863.28
2022-09-03T22:16:13.481Z,100852.41
2022-09-03T22:18:44.253Z,100867.16
2022-09-03T22:21:23.524Z,100861.22
2022-09-03T22:24:07.512Z,100860.91
2022-09-03T22:26:45.357Z,100865.31
2022-09-03T22:29:20.794Z,100862.94
2022-09-03T22:32:00.387Z,100858.06
2022-09-03T22:34:45.665Z,100869.06
2022-09-03T22:37:23.550Z,100864.53
2022-09-03T22:39:52.077Z,100859.25
2022-09-03T22:42:44.571Z,100868.59
2022-09-03T22:45:38.373Z,100867.34
2022-09-03T22:48:21.099Z,100875.84
2022-09-03T22:50:57.083Z,100866.72
2022-09-03T22:53:41.205Z,100857.72
2022-09-03T22:56:11.752Z,100870.94
2022-09-03T22:58:45.734Z,100863.84
2022-09-03T23:01:18.932Z,100862.53
2022-09-03T23:03:54.140Z,100851.59
2022-09-03T23:06:28.247Z,100867.50
2022-09-03T23:09:02.029Z,100866.66
2022-09-03T23:11:35.744Z,100870.00
2022-09-03T23:14:09.786Z,100867.16
2022-09-03T23:16:44.358Z,100868.19
2022-09-03T23:21:54.378Z,100856.06
2022-09-03T23:24:29.610Z,100854.63
2022-09-03T23:26:59.945Z,100856.59
2022-09-03T23:29:34.854Z,100853.81
2022-09-03T23:32:05.467Z,100853.44
2022-09-03T23:34:35.128Z,100844.16
2022-09-03T23:37:34.495Z,100843.28
2022-09-03T23:40:26.216Z,100840.13
2022-09-03T23:43:16.414Z,100840.91
2022-09-03T23:45:52.941Z,100846.19
2022-09-03T23:48:36.806Z,100845.91
2022-09-03T23:51:18.564Z,100848.78
2022-09-03T23:53:59.554Z,100840.56
2022-09-03T23:56:49.527Z,100845.81
2022-09-03T23:59:28.523Z,100860.44
